createdAt,value
2022-08-22T00:01:27.776Z,100029.91
2022-08-22T00:03:01.921Z,99973.88
2022-08-22T00:03:04.819Z,99991.94
2022-08-22T00:04:10.763Z,100029.16
2022-08-22T00:06:52.503Z,100032.63
2022-08-22T00:09:33.169Z,100031.63
2022-08-22T00:12:16.721Z,100033.94
2022-08-22T00:14:51.740Z,100027.28
2022-08-22T00:17:43.333Z,100023.13
2022-08-22T00:20:19.690Z,100028.25
2022-08-22T00:23:06.318Z,100031.88
2022-08-22T00:25:46.126Z,100033.84
2022-08-22T00:28:20.694Z,100026.09
2022-08-22T00:30:59.727Z,100023.38
2022-08-22T00:33:41.641Z,100023.47
2022-08-22T00:36:20.513Z,100023.69
2022-08-22T00:38:55.112Z,100018.44
2022-08-22T00:41:46.369Z,100023.03
2022-08-22T00:45:00.935Z,100028.44
2022-08-22T00:47:51.101Z,100021.41
2022-08-22T00:50:55.892Z,100021.91
2022-08-22T00:53:52.645Z,100015.00
2022-08-22T00:57:00.271Z,100017.81
2022-08-22T01:00:14.976Z,100016.34
2022-08-22T01:03:12.780Z,100024.72
2022-08-22T01:05:59.877Z,100019.66
2022-08-22T01:08:47.970Z,100021.72
2022-08-22T01:11:42.034Z,100015.66
2022-08-22T01:14:35.007Z,100009.56
2022-08-22T01:17:42.847Z,100015.84
2022-08-22T01:21:24.372Z,100013.19
2022-08-22T01:25:03.294Z,100002.56
2022-08-22T01:28:41.723Z,100011.00
2022-08-22T01:32:28.942Z,100007.97
2022-08-22T01:35:25.389Z,100004.41
2022-08-22T01:39:04.061Z,100007.72
2022-08-22T01:42:16.109Z,99997.75
2022-08-22T01:45:06.586Z,100008.13
2022-08-22T01:47:41.722Z,99999.44
2022-08-22T01:50:23.897Z,99994.00
2022-08-22T01:53:01.925Z,99998.41
2022-08-22T01:55:36.493Z,99999.97
2022-08-22T01:58:17.239Z,100001.00
2022-08-22T02:01:09.983Z,99991.03
2022-08-22T02:03:52.584Z,100003.09
2022-08-22T02:06:34.081Z,99994.81
2022-08-22T02:09:09.441Z,100005.78
2022-08-22T02:11:46.155Z,99999.41
2022-08-22T02:14:36.121Z,100003.41
2022-08-22T02:17:18.548Z,99993.78
2022-08-22T02:19:58.126Z,99997.88
2022-08-22T02:22:37.913Z,99996.53
2022-08-22T02:25:20.802Z,99988.88
2022-08-22T02:27:58.938Z,99990.91
2022-08-22T02:30:45.374Z,99993.72
2022-08-22T02:33:26.612Z,99993.81
2022-08-22T02:36:02.063Z,99993.84
2022-08-22T02:38:38.470Z,99994.34
2022-08-22T02:41:17.773Z,99992.16
2022-08-22T02:43:52.814Z,99994.00
2022-08-22T02:46:30.890Z,99987.81
2022-08-22T02:49:08.828Z,99990.69
2022-08-22T02:51:48.049Z,99995.97
2022-08-22T02:54:29.382Z,99998.94
2022-08-22T02:57:04.823Z,99996.56
2022-08-22T02:59:38.036Z,99994.34
2022-08-22T03:02:36.666Z,99990.44
2022-08-22T03:05:23.934Z,99994.78
2022-08-22T03:08:02.470Z,99988.19
2022-08-22T03:10:38.215Z,99987.47
2022-08-22T03:13:13.147Z,99980.16
2022-08-22T03:15:50.599Z,99990.00
2022-08-22T03:18:27.045Z,99984.34
2022-08-22T03:21:12.986Z,99989.78
2022-08-22T03:23:47.632Z,99989.72
2022-08-22T03:26:30.705Z,99988.56
2022-08-22T03:29:05.989Z,99988.56
2022-08-22T03:31:34.678Z,99980.91
2022-08-22T03:34:23.231Z,99978.19
2022-08-22T03:37:07.964Z,99980.97
2022-08-22T03:39:50.999Z,99983.75
2022-08-22T03:43:09.218Z,99975.16
2022-08-22T03:46:13.709Z,99981.50
2022-08-22T03:49:39.341Z,99989.31
2022-08-22T03:53:03.971Z,99999.00
2022-08-22T03:56:06.353Z,100000.31
2022-08-22T03:59:16.583Z,100004.94
2022-08-22T04:02:42.546Z,100005.78
2022-08-22T04:06:12.702Z,100002.81
2022-08-22T04:09:19.894Z,100009.34
2022-08-22T04:12:24.572Z,100015.78
2022-08-22T04:15:19.924Z,100016.16
2022-08-22T04:18:05.551Z,100015.63
2022-08-22T04:21:09.076Z,100017.47
2022-08-22T04:24:20.197Z,100015.63
2022-08-22T04:26:54.318Z,100021.34
2022-08-22T04:29:30.043Z,100023.72
2022-08-22T04:32:12.699Z,100012.81
2022-08-22T04:34:48.829Z,100015.44
2022-08-22T04:37:25.272Z,100013.38
2022-08-22T04:40:00.191Z,100014.16
2022-08-22T04:42:34.925Z,100016.88
2022-08-22T04:45:11.080Z,100030.19
2022-08-22T04:47:47.202Z,100023.91
2022-08-22T04:50:27.068Z,100025.91
2022-08-22T04:53:13.910Z,100021.72
2022-08-22T04:55:57.448Z,100021.88
2022-08-22T04:58:43.305Z,100027.13
2022-08-22T05:01:18.944Z,100029.75
2022-08-22T05:03:57.323Z,100034.31
2022-08-22T05:06:31.716Z,100037.63
2022-08-22T05:09:07.302Z,100039.81
2022-08-22T05:11:37.443Z,100038.41
2022-08-22T05:14:18.917Z,100039.63
2022-08-22T05:16:52.360Z,100035.78
2022-08-22T05:19:32.131Z,100035.41
2022-08-22T05:22:01.819Z,100031.31
2022-08-22T05:24:37.467Z,100038.91
2022-08-22T05:27:13.812Z,100038.41
2022-08-22T05:29:47.302Z,100040.97
2022-08-22T05:32:22.999Z,100036.53
2022-08-22T05:34:57.273Z,100039.31
2022-08-22T05:37:32.141Z,100029.56
2022-08-22T05:40:01.862Z,100032.94
2022-08-22T05:42:34.929Z,100031.84
2022-08-22T05:45:11.513Z,100032.44
2022-08-22T05:47:46.903Z,100035.09
2022-08-22T05:50:21.371Z,100042.22
2022-08-22T05:53:06.270Z,100045.75
2022-08-22T05:55:47.038Z,100040.50
2022-08-22T05:58:47.160Z,100041.75
2022-08-22T06:01:30.165Z,100040.50
2022-08-22T06:04:07.666Z,100039.75
2022-08-22T06:06:44.122Z,100050.03
2022-08-22T06:09:20.295Z,100040.34
2022-08-22T06:11:59.082Z,100046.88
2022-08-22T06:14:37.350Z,100047.34
2022-08-22T06:17:13.669Z,100046.41
2022-08-22T06:19:45.191Z,100038.84
2022-08-22T06:22:19.831Z,100052.41
2022-08-22T06:24:51.460Z,100052.19
2022-08-22T06:27:31.107Z,100048.50
2022-08-22T06:30:03.990Z,100048.59
2022-08-22T06:32:58.847Z,100053.22
2022-08-22T06:35:30.414Z,100056.28
2022-08-22T06:38:02.064Z,100062.22
2022-08-22T06:40:31.816Z,100072.25
2022-08-22T06:43:00.766Z,100072.72
2022-08-22T06:45:33.176Z,100070.84
2022-08-22T06:48:16.836Z,100072.16
2022-08-22T06:50:49.846Z,100071.72
2022-08-22T06:53:23.140Z,100067.16
2022-08-22T06:55:55.705Z,100072.19
2022-08-22T06:58:31.004Z,100061.94
2022-08-22T07:01:12.454Z,100069.38
2022-08-22T07:03:46.172Z,100063.56
2022-08-22T07:06:18.432Z,100069.75
2022-08-22T07:08:55.752Z,100072.19
2022-08-22T07:11:28.330Z,100070.91
2022-08-22T07:14:01.848Z,100070.91
2022-08-22T07:16:33.604Z,100073.41
2022-08-22T07:19:03.141Z,100071.03
2022-08-22T07:21:43.534Z,100082.09
2022-08-22T07:24:19.386Z,100075.47
2022-08-22T07:27:12.657Z,100083.69
2022-08-22T07:29:53.056Z,100073.56
2022-08-22T07:32:30.531Z,100081.41
2022-08-22T07:35:10.621Z,100081.31
2022-08-22T07:37:58.462Z,100085.09
2022-08-22T07:40:35.674Z,100080.13
2022-08-22T07:43:17.582Z,100084.06
2022-08-22T07:45:53.778Z,100083.84
2022-08-22T07:48:27.722Z,100088.72
2022-08-22T07:51:04.389Z,100094.84
2022-08-22T07:53:41.518Z,100088.75
2022-08-22T07:56:27.709Z,100095.25
2022-08-22T07:59:01.111Z,100086.06
2022-08-22T08:01:30.243Z,100084.63
2022-08-22T08:04:04.500Z,100089.59
2022-08-22T08:06:33.998Z,100085.59
2022-08-22T08:09:04.397Z,100085.63
2022-08-22T08:11:41.186Z,100090.41
2022-08-22T08:14:13.692Z,100077.25
2022-08-22T08:16:46.001Z,100083.28
2022-08-22T08:19:16.835Z,100088.25
2022-08-22T08:21:54.583Z,100089.72
2022-08-22T08:24:32.236Z,100087.19
2022-08-22T08:27:33.118Z,100089.28
2022-08-22T08:30:07.323Z,100081.91
2022-08-22T08:32:39.765Z,100080.81
2022-08-22T08:35:14.431Z,100082.53
2022-08-22T08:37:48.984Z,100086.19
2022-08-22T08:40:39.568Z,100095.91
2022-08-22T08:43:28.249Z,100093.50
2022-08-22T08:46:24.800Z,100089.56
2022-08-22T08:49:27.731Z,100089.19
2022-08-22T08:52:40.467Z,100080.91
2022-08-22T08:55:33.321Z,100071.09
2022-08-22T08:58:26.874Z,100087.50
2022-08-22T09:01:07.130Z,100082.63
2022-08-22T09:04:15.617Z,100082.97
2022-08-22T09:07:09.508Z,100073.44
2022-08-22T09:09:52.731Z,100075.88
2022-08-22T09:12:56.444Z,100073.00
2022-08-22T09:16:04.895Z,100077.06
2022-08-22T09:19:16.316Z,100072.97
2022-08-22T09:22:33.526Z,100074.66
2022-08-22T09:25:25.196Z,100071.38
2022-08-22T09:28:02.460Z,100073.91
2022-08-22T09:30:59.663Z,100057.47
2022-08-22T09:33:36.575Z,100061.09
2022-08-22T09:36:13.271Z,100052.91
2022-08-22T09:38:56.366Z,100055.47
2022-08-22T09:41:39.019Z,100052.97
2022-08-22T09:44:19.745Z,100050.91
2022-08-22T09:47:08.474Z,100050.19
2022-08-22T09:49:50.030Z,100041.19
2022-08-22T09:52:36.814Z,100039.75
2022-08-22T09:55:16.872Z,100036.31
2022-08-22T09:57:53.020Z,100033.84
2022-08-22T10:00:26.553Z,100019.97
2022-08-22T10:03:15.411Z,100026.03
2022-08-22T10:05:48.682Z,100023.66
2022-08-22T10:08:45.844Z,100026.16
2022-08-22T10:11:28.765Z,100012.47
2022-08-22T10:14:04.661Z,100006.56
2022-08-22T10:16:59.182Z,100003.47
2022-08-22T10:19:35.726Z,100000.53
2022-08-22T10:22:29.983Z,99999.25
2022-08-22T10:25:18.558Z,99997.66
2022-08-22T10:28:00.117Z,100007.53
2022-08-22T10:30:34.869Z,100003.47
2022-08-22T10:33:12.025Z,99996.00
2022-08-22T10:36:05.178Z,99997.72
2022-08-22T10:38:44.238Z,100006.16
2022-08-22T10:41:37.911Z,100005.03
2022-08-22T10:44:17.210Z,99989.06
2022-08-22T10:46:53.619Z,99989.84
2022-08-22T10:49:33.344Z,99979.81
2022-08-22T10:52:17.005Z,99985.06
2022-08-22T10:54:52.723Z,99989.28
2022-08-22T10:57:52.207Z,99985.34
2022-08-22T11:00:45.995Z,99987.00
2022-08-22T11:03:23.558Z,99990.13
2022-08-22T11:05:56.102Z,99997.09
2022-08-22T11:09:16.666Z,99987.81
2022-08-22T11:11:49.736Z,99988.66
2022-08-22T11:15:04.691Z,99984.88
2022-08-22T11:18:13.072Z,99988.50
2022-08-22T11:20:53.810Z,99988.84
2022-08-22T11:23:39.423Z,99981.56
2022-08-22T11:26:33.514Z,99983.94
2022-08-22T11:29:41.173Z,99974.91
2022-08-22T11:32:18.964Z,99976.72
2022-08-22T11:34:57.315Z,99966.03
2022-08-22T11:37:46.736Z,99975.22
2022-08-22T11:40:32.672Z,99968.72
2022-08-22T11:43:18.360Z,99968.81
2022-08-22T11:45:49.555Z,99970.50
2022-08-22T11:48:26.141Z,99968.47
2022-08-22T11:51:13.467Z,99964.47
2022-08-22T11:53:48.712Z,99966.19
2022-08-22T11:56:26.788Z,99959.44
2022-08-22T11:59:03.202Z,99958.03
2022-08-22T12:01:43.203Z,99952.44
2022-08-22T12:04:19.263Z,99952.44
2022-08-22T12:07:02.459Z,99956.50
2022-08-22T12:09:42.828Z,99954.66
2022-08-22T12:12:25.580Z,99944.09
2022-08-22T12:15:03.699Z,99937.38
2022-08-22T12:18:19.948Z,99936.25
2022-08-22T12:21:19.477Z,99942.44
2022-08-22T12:24:30.802Z,99943.44
2022-08-22T12:27:33.852Z,99944.13
2022-08-22T12:30:16.922Z,99935.97
2022-08-22T12:33:28.682Z,99917.94
2022-08-22T12:36:18.184Z,99931.78
2022-08-22T12:39:26.805Z,99928.94
2022-08-22T12:42:41.905Z,99918.53
2022-08-22T12:45:37.320Z,99925.25
2022-08-22T12:48:28.121Z,99917.41
2022-08-22T12:51:18.197Z,99912.53
2022-08-22T12:54:28.520Z,99906.44
2022-08-22T12:57:10.520Z,99901.94
2022-08-22T12:59:58.106Z,99897.31
2022-08-22T13:02:32.769Z,99896.34
2022-08-22T13:05:13.673Z,99897.78
2022-08-22T13:07:55.022Z,99899.69
2022-08-22T13:10:46.906Z,99900.47
2022-08-22T13:13:31.512Z,99892.09
2022-08-22T13:16:08.239Z,99890.56
2022-08-22T13:18:53.527Z,99893.38
2022-08-22T13:21:31.696Z,99889.84
2022-08-22T13:24:10.376Z,99893.66
2022-08-22T13:26:49.232Z,99887.81
2022-08-22T13:29:26.194Z,99883.03
2022-08-22T13:32:01.625Z,99876.63
2022-08-22T13:34:43.571Z,99880.22
2022-08-22T13:37:16.983Z,99880.31
2022-08-22T13:39:49.316Z,99875.25
2022-08-22T13:42:30.192Z,99875.84
2022-08-22T13:45:04.481Z,99869.66
2022-08-22T13:47:39.411Z,99874.03
2022-08-22T13:50:15.774Z,99875.03
2022-08-22T13:52:53.747Z,99872.09
2022-08-22T13:55:31.329Z,99865.56
2022-08-22T13:58:06.968Z,99865.28
2022-08-22T14:01:28.460Z,99869.63
2022-08-22T14:04:02.755Z,99859.69
2022-08-22T14:06:41.540Z,99864.34
2022-08-22T14:09:31.363Z,99860.78
2022-08-22T14:12:13.644Z,99854.09
2022-08-22T14:14:45.887Z,99855.97
2022-08-22T14:17:18.448Z,99847.63
2022-08-22T14:19:59.683Z,99853.44
2022-08-22T14:22:35.822Z,99856.53
2022-08-22T14:25:09.738Z,99848.69
2022-08-22T14:27:57.970Z,99856.31
2022-08-22T14:30:29.799Z,99855.47
2022-08-22T14:33:12.474Z,99839.84
2022-08-22T14:35:52.970Z,99840.88
2022-08-22T14:38:30.305Z,99850.47
2022-08-22T14:41:13.885Z,99842.03
2022-08-22T14:43:56.821Z,99838.84
2022-08-22T14:46:31.630Z,99841.91
2022-08-22T14:49:30.435Z,99835.00
2022-08-22T14:52:07.519Z,99838.97
2022-08-22T14:54:40.139Z,99833.31
2022-08-22T14:57:19.916Z,99828.81
2022-08-22T14:59:52.833Z,99830.53
2022-08-22T15:02:28.063Z,99829.16
2022-08-22T15:04:58.148Z,99821.91
2022-08-22T15:07:37.661Z,99824.22
2022-08-22T15:10:20.642Z,99819.44
2022-08-22T15:12:53.940Z,99824.34
2022-08-22T15:15:41.276Z,99823.84
2022-08-22T15:18:36.464Z,99820.72
2022-08-22T15:21:10.281Z,99821.59
2022-08-22T15:23:46.578Z,99814.56
2022-08-22T15:26:26.201Z,99818.69
2022-08-22T15:29:08.812Z,99816.38
2022-08-22T15:31:41.553Z,99810.94
2022-08-22T15:34:20.937Z,99810.72
2022-08-22T15:37:29.501Z,99814.81
2022-08-22T15:40:11.623Z,99814.28
2022-08-22T15:42:46.032Z,99803.88
2022-08-22T15:45:30.661Z,99804.25
2022-08-22T15:48:06.181Z,99803.34
2022-08-22T15:50:41.964Z,99807.13
2022-08-22T15:53:21.554Z,99798.25
2022-08-22T15:56:23.419Z,99802.28
2022-08-22T15:59:27.823Z,99799.63
2022-08-22T16:02:04.860Z,99799.78
2022-08-22T16:04:47.362Z,99806.97
2022-08-22T16:07:34.297Z,99799.25
2022-08-22T16:10:09.635Z,99801.31
2022-08-22T16:12:43.055Z,99801.09
2022-08-22T16:16:00.357Z,99801.06
2022-08-22T16:19:20.255Z,99803.03
2022-08-22T16:22:18.975Z,99797.72
2022-08-22T16:25:10.339Z,99794.88
2022-08-22T16:27:57.443Z,99794.31
2022-08-22T16:30:39.641Z,99795.16
2022-08-22T16:33:18.044Z,99792.34
2022-08-22T16:36:46.091Z,99795.31
2022-08-22T16:39:37.361Z,99785.59
2022-08-22T16:42:36.183Z,99783.91
2022-08-22T16:45:17.614Z,99777.72
2022-08-22T16:48:05.465Z,99776.97
2022-08-22T16:50:41.039Z,99775.59
2022-08-22T16:53:33.396Z,99773.94
2022-08-22T16:56:26.380Z,99777.25
2022-08-22T16:59:41.070Z,99786.09
2022-08-22T17:02:26.649Z,99785.41
2022-08-22T17:05:09.749Z,99779.19
2022-08-22T17:07:58.717Z,99782.88
2022-08-22T17:10:41.666Z,99784.53
2022-08-22T17:13:35.419Z,99788.47
2022-08-22T17:16:22.898Z,99785.56
2022-08-22T17:19:20.738Z,99796.25
2022-08-22T17:21:57.363Z,99786.28
2022-08-22T17:24:37.444Z,99794.56
2022-08-22T17:27:16.754Z,99793.34
2022-08-22T17:30:01.728Z,99798.00
2022-08-22T17:32:46.944Z,99794.19
2022-08-22T17:35:34.404Z,99797.28
2022-08-22T17:38:14.427Z,99797.66
2022-08-22T17:41:00.933Z,99805.19
2022-08-22T17:43:49.275Z,99802.53
2022-08-22T17:46:41.225Z,99796.31
2022-08-22T17:49:34.531Z,99810.44
2022-08-22T17:52:11.595Z,99799.13
2022-08-22T17:54:49.210Z,99796.53
2022-08-22T17:57:30.962Z,99802.78
2022-08-22T18:00:07.582Z,99801.84
2022-08-22T18:02:42.682Z,99806.31
2022-08-22T18:05:20.314Z,99812.00
2022-08-22T18:08:00.591Z,99812.00
2022-08-22T18:10:46.018Z,99806.94
2022-08-22T18:13:31.405Z,99803.66
2022-08-22T18:16:08.410Z,99815.66
2022-08-22T18:18:40.541Z,99810.09
2022-08-22T18:21:18.511Z,99811.78
2022-08-22T18:23:53.983Z,99817.38
2022-08-22T18:26:30.338Z,99817.75
2022-08-22T18:29:10.044Z,99817.03
2022-08-22T18:31:48.502Z,99816.75
2022-08-22T18:34:31.443Z,99835.66
2022-08-22T18:37:06.066Z,99822.81
2022-08-22T18:39:43.989Z,99830.22
2022-08-22T18:42:25.569Z,99830.59
2022-08-22T18:44:55.609Z,99830.25
2022-08-22T18:47:32.650Z,99837.50
2022-08-22T18:50:24.585Z,99841.41
2022-08-22T18:52:57.465Z,99840.19
2022-08-22T18:55:48.374Z,99846.59
2022-08-22T18:59:05.196Z,99845.28
2022-08-22T19:01:56.254Z,99848.44
2022-08-22T19:04:57.510Z,99843.38
2022-08-22T19:07:55.407Z,99850.63
2022-08-22T19:10:41.799Z,99851.84
2022-08-22T19:13:39.682Z,99848.47
2022-08-22T19:16:52.128Z,99856.94
2022-08-22T19:19:53.897Z,99853.78
2022-08-22T19:22:26.145Z,99855.94
2022-08-22T19:25:15.727Z,99857.16
2022-08-22T19:27:48.313Z,99861.97
2022-08-22T19:30:45.698Z,99857.16
2022-08-22T19:33:34.285Z,99859.91
2022-08-22T19:36:11.885Z,99859.31
2022-08-22T19:39:00.481Z,99859.81
2022-08-22T19:41:53.587Z,99867.88
2022-08-22T19:44:42.228Z,99863.78
2022-08-22T19:47:34.902Z,99862.22
2022-08-22T19:50:13.373Z,99863.88
2022-08-22T19:52:58.771Z,99863.28
2022-08-22T19:55:42.066Z,99862.94
2022-08-22T19:58:32.886Z,99864.25
2022-08-22T20:01:09.967Z,99869.56
2022-08-22T20:03:51.597Z,99869.06
2022-08-22T20:06:47.819Z,99872.78
2022-08-22T20:09:31.997Z,99878.34
2022-08-22T20:12:14.667Z,99872.28
2022-08-22T20:14:46.101Z,99872.28
2022-08-22T20:17:41.643Z,99871.59
2022-08-22T20:20:17.328Z,99873.56
2022-08-22T20:22:53.107Z,99870.31
2022-08-22T20:25:42.979Z,99875.38
2022-08-22T20:28:40.409Z,99871.28
2022-08-22T20:31:20.734Z,99870.31
2022-08-22T20:33:59.110Z,99873.31
2022-08-22T20:36:29.288Z,99874.41
2022-08-22T20:39:03.344Z,99885.03
2022-08-22T20:41:37.418Z,99884.53
2022-08-22T20:44:13.678Z,99881.03
2022-08-22T20:46:55.203Z,99892.72
2022-08-22T20:49:31.232Z,99885.69
2022-08-22T20:52:02.089Z,99885.69
2022-08-22T20:54:33.117Z,99886.78
2022-08-22T20:57:13.912Z,99894.03
2022-08-22T20:59:51.495Z,99885.44
2022-08-22T21:02:25.114Z,99887.47
2022-08-22T21:05:03.281Z,99893.22
2022-08-22T21:07:35.155Z,99896.28
2022-08-22T21:10:25.008Z,99884.94
2022-08-22T21:13:10.246Z,99892.41
2022-08-22T21:15:42.913Z,99896.69
2022-08-22T21:18:14.171Z,99895.00
2022-08-22T21:20:43.994Z,99903.69
2022-08-22T21:23:16.059Z,99903.28
2022-08-22T21:26:08.639Z,99905.31
2022-08-22T21:28:55.461Z,99904.94
2022-08-22T21:31:26.197Z,99911.06
2022-08-22T21:33:56.587Z,99914.66
2022-08-22T21:36:30.294Z,99925.41
2022-08-22T21:39:03.659Z,99929.91
2022-08-22T21:41:38.983Z,99921.19
2022-08-22T21:44:28.915Z,99917.94
2022-08-22T21:46:58.423Z,99917.63
2022-08-22T21:49:30.425Z,99929.72
2022-08-22T21:52:00.179Z,99920.41
2022-08-22T21:54:42.546Z,99921.16
2022-08-22T21:57:35.604Z,99929.53
2022-08-22T22:00:11.038Z,99927.63
2022-08-22T22:02:43.832Z,99928.34
2022-08-22T22:05:17.029Z,99926.97
2022-08-22T22:07:48.440Z,99926.13
2022-08-22T22:10:22.755Z,99936.28
2022-08-22T22:12:52.714Z,99935.34
2022-08-22T22:15:31.870Z,99938.81
2022-08-22T22:18:01.337Z,99941.56
2022-08-22T22:20:30.159Z,99946.22
2022-08-22T22:23:00.177Z,99946.97
2022-08-22T22:25:40.381Z,99946.63
2022-08-22T22:28:15.902Z,99947.91
2022-08-22T22:30:45.535Z,99950.66
2022-08-22T22:33:13.966Z,99958.81
2022-08-22T22:35:42.476Z,99953.75
2022-08-22T22:38:13.539Z,99962.47
2022-08-22T22:40:42.612Z,99953.63
2022-08-22T22:43:12.629Z,99951.09
2022-08-22T22:45:41.621Z,99954.88
2022-08-22T22:48:10.142Z,99964.63
2022-08-22T22:50:40.920Z,99967.56
2022-08-22T22:53:11.797Z,99969.56
2022-08-22T22:55:48.110Z,99966.72
2022-08-22T22:58:28.800Z,99971.81
2022-08-22T23:00:58.819Z,99979.41
2022-08-22T23:03:27.419Z,99974.31
2022-08-22T23:05:55.797Z,99983.59
2022-08-22T23:08:25.646Z,99975.47
2022-08-22T23:10:54.183Z,99983.78
2022-08-22T23:13:22.651Z,99978.69
2022-08-22T23:15:51.035Z,99987.41
2022-08-22T23:18:21.027Z,99988.69
2022-08-22T23:20:58.750Z,99994.50
2022-08-22T23:23:28.525Z,99995.56
2022-08-22T23:25:56.917Z,100002.28
2022-08-22T23:28:25.306Z,100005.00
2022-08-22T23:30:53.666Z,100013.34
2022-08-22T23:33:22.132Z,100010.91
2022-08-22T23:35:51.484Z,100016.75
2022-08-22T23:38:25.408Z,100017.47
2022-08-22T23:40:55.206Z,100021.72
2022-08-22T23:43:23.599Z,100021.84
2022-08-22T23:45:52.213Z,100036.84
2022-08-22T23:48:20.635Z,100028.06
2022-08-22T23:50:49.305Z,100031.25
2022-08-22T23:53:17.729Z,100032.50
2022-08-22T23:55:46.202Z,100033.53
2022-08-22T23:58:16.608Z,100031.19
